createdAt,value
2018-12-22T00:00:29.790Z,0.00
2018-12-22T00:01:29.756Z,0.00
2018-12-22T00:02:29.731Z,0.00
2018-12-22T00:03:29.772Z,0.00
2018-12-22T00:04:29.970Z,0.00
2018-12-22T00:05:29.883Z,0.00
2018-12-22T00:06:29.903Z,0.00
2018-12-22T00:07:29.978Z,0.00
2018-12-22T00:08:29.558Z,0.00
2018-12-22T00:09:29.684Z,0.00
2018-12-22T00:10:29.503Z,0.00
2018-12-22T00:11:29.606Z,0.00
2018-12-22T00:12:29.446Z,0.00
2018-12-22T00:13:29.505Z,0.00
2018-12-22T00:14:29.381Z,0.00
2018-12-22T00:15:29.437Z,0.00
2018-12-22T00:16:29.346Z,0.00
2018-12-22T00:17:29.428Z,0.00
2018-12-22T00:18:29.301Z,0.00
2018-12-22T00:19:29.375Z,0.00
2018-12-22T00:20:29.220Z,0.00
2018-12-22T00:21:29.256Z,0.00
2018-12-22T00:22:29.165Z,0.00
2018-12-22T00:23:29.269Z,0.00
2018-12-22T00:24:29.107Z,0.00
2018-12-22T00:25:29.086Z,0.00
2018-12-22T00:26:29.052Z,0.00
2018-12-22T00:27:29.095Z,0.00
2018-12-22T00:28:29.011Z,0.00
2018-12-22T00:29:29.113Z,0.00
2018-12-22T00:30:28.948Z,0.00
2018-12-22T00:31:29.026Z,0.00
2018-12-22T00:32:28.887Z,0.00
2018-12-22T00:33:28.935Z,0.00
2018-12-22T00:34:28.832Z,0.00
2018-12-22T00:35:28.945Z,0.00
2018-12-22T00:36:28.771Z,0.00
2018-12-22T00:37:28.761Z,0.00
2018-12-22T00:38:28.716Z,0.00
2018-12-22T00:39:28.772Z,0.00
2018-12-22T00:40:28.663Z,0.00
2018-12-22T00:41:28.630Z,0.00
2018-12-22T00:42:28.601Z,0.00
2018-12-22T00:43:28.577Z,0.00
2018-12-22T00:44:28.542Z,0.00
2018-12-22T00:45:28.522Z,0.00
2018-12-22T00:46:28.616Z,0.00
2018-12-22T00:47:28.547Z,0.00
2018-12-22T00:48:28.534Z,0.00
2018-12-22T00:49:28.410Z,0.00
2018-12-22T00:50:28.536Z,0.00
2018-12-22T00:51:28.401Z,0.00
2018-12-22T00:52:28.468Z,0.00
2018-12-22T00:53:28.290Z,0.00
2018-12-22T00:54:28.264Z,0.00
2018-12-22T00:55:28.373Z,0.00
2018-12-22T00:56:28.208Z,0.00
2018-12-22T00:57:28.192Z,0.00
2018-12-22T00:58:30.875Z,0.00
2018-12-22T00:59:28.125Z,0.00
2018-12-22T01:00:28.201Z,0.00
2018-12-22T01:01:28.210Z,0.00
2018-12-22T01:02:28.216Z,0.00
2018-12-22T01:03:28.023Z,0.00
2018-12-22T01:04:28.125Z,0.00
2018-12-22T01:05:27.951Z,0.00
2018-12-22T01:06:28.051Z,0.00
2018-12-22T01:07:27.905Z,0.00
2018-12-22T01:08:28.060Z,0.00
2018-12-22T01:09:27.839Z,0.00
2018-12-22T01:10:27.965Z,0.00
2018-12-22T01:11:27.775Z,0.00
2018-12-22T01:12:27.875Z,0.00
2018-12-22T01:13:27.724Z,0.00
2018-12-22T01:14:27.790Z,0.00
2018-12-22T01:15:27.666Z,0.00
2018-12-22T01:16:27.803Z,0.00
2018-12-22T01:17:27.610Z,0.00
2018-12-22T01:18:27.709Z,0.00
2018-12-22T01:19:27.556Z,0.00
2018-12-22T01:20:27.624Z,0.00
2018-12-22T01:21:27.499Z,0.00
2018-12-22T01:22:27.637Z,0.00
2018-12-22T01:23:27.442Z,0.00
2018-12-22T01:24:27.550Z,0.00
2018-12-22T01:25:27.389Z,0.00
2018-12-22T01:26:27.464Z,0.00
2018-12-22T01:27:27.329Z,0.00
2018-12-22T01:28:27.478Z,0.00
2018-12-22T01:29:27.273Z,0.00
2018-12-22T01:30:27.389Z,0.00
2018-12-22T01:31:27.213Z,0.00
2018-12-22T01:32:28.142Z,0.00
2018-12-22T01:33:27.157Z,0.00
2018-12-22T01:34:27.317Z,0.00
2018-12-22T01:35:27.103Z,0.00
2018-12-22T01:36:27.221Z,0.00
2018-12-22T01:37:27.042Z,0.00
2018-12-22T01:38:27.079Z,0.00
2018-12-22T01:39:26.987Z,0.00
2018-12-22T01:40:27.094Z,0.00
2018-12-22T01:41:26.928Z,0.00
2018-12-22T01:42:27.009Z,0.00
2018-12-22T01:43:27.173Z,0.00
2018-12-22T01:44:27.035Z,0.00
2018-12-22T01:45:26.819Z,0.00
2018-12-22T01:46:26.942Z,0.00
2018-12-22T01:47:26.764Z,0.00
2018-12-22T01:48:33.661Z,0.00
2018-12-22T01:49:26.709Z,0.00
2018-12-22T01:50:26.715Z,0.00
2018-12-22T01:51:26.651Z,0.00
2018-12-22T01:52:26.728Z,0.00
2018-12-22T01:53:26.587Z,0.00
2018-12-22T01:54:26.638Z,0.00
2018-12-22T01:55:26.532Z,0.00
2018-12-22T01:56:26.549Z,0.00
2018-12-22T01:57:26.475Z,0.00
2018-12-22T01:58:27.485Z,0.00
2018-12-22T01:59:26.418Z,0.00
2018-12-22T02:00:26.478Z,0.00
2018-12-22T02:01:26.359Z,0.00
2018-12-22T02:02:26.385Z,0.00
2018-12-22T02:03:26.305Z,0.00
2018-12-22T02:04:26.293Z,0.00
2018-12-22T02:05:26.247Z,0.00
2018-12-22T02:06:26.305Z,0.00
2018-12-22T02:07:26.192Z,0.00
2018-12-22T02:08:26.217Z,0.00
2018-12-22T02:09:26.158Z,0.00
2018-12-22T02:10:26.128Z,0.00
2018-12-22T02:11:26.077Z,0.00
2018-12-22T02:12:26.140Z,0.00
2018-12-22T02:13:26.027Z,0.00
2018-12-22T02:14:26.055Z,0.00
2018-12-22T02:15:25.964Z,0.00
2018-12-22T02:16:25.962Z,0.00
2018-12-22T02:17:25.912Z,0.00
2018-12-22T02:18:25.974Z,0.00
2018-12-22T02:19:25.849Z,0.00
2018-12-22T02:20:25.882Z,0.00
2018-12-22T02:21:25.791Z,0.00
2018-12-22T02:22:25.795Z,0.00
2018-12-22T02:23:25.733Z,0.00
2018-12-22T02:24:25.807Z,0.00
2018-12-22T02:25:25.679Z,0.00
2018-12-22T02:26:25.726Z,0.00
2018-12-22T02:27:25.626Z,0.00
2018-12-22T02:28:25.617Z,0.00
2018-12-22T02:29:25.558Z,0.00
2018-12-22T02:30:25.652Z,0.00
2018-12-22T02:31:25.508Z,0.00
2018-12-22T02:32:25.564Z,0.00
2018-12-22T02:33:25.450Z,0.00
2018-12-22T02:34:25.417Z,0.00
2018-12-22T02:35:25.470Z,0.00
2018-12-22T02:36:25.366Z,0.00
2018-12-22T02:37:25.430Z,0.00
2018-12-22T02:38:25.312Z,0.00
2018-12-22T02:39:25.291Z,0.00
2018-12-22T02:40:25.257Z,0.00
2018-12-22T02:41:25.299Z,0.00
2018-12-22T02:42:25.196Z,0.00
2018-12-22T02:43:25.214Z,0.00
2018-12-22T02:44:25.130Z,0.00
2018-12-22T02:45:26.150Z,0.00
2018-12-22T02:46:25.079Z,0.00
2018-12-22T02:47:25.156Z,0.00
2018-12-22T02:48:25.024Z,0.00
2018-12-22T02:49:25.052Z,0.00
2018-12-22T02:50:25.094Z,0.00
2018-12-22T02:51:25.274Z,0.00
2018-12-22T02:52:25.215Z,0.00
2018-12-22T02:53:25.326Z,0.00
2018-12-22T02:54:25.245Z,0.00
2018-12-22T02:55:24.884Z,0.00
2018-12-22T02:56:24.798Z,0.00
2018-12-22T02:57:24.765Z,0.00
2018-12-22T02:58:24.799Z,0.00
2018-12-22T02:59:24.708Z,0.00
2018-12-22T03:00:24.711Z,0.00
2018-12-22T03:01:24.662Z,0.00
2018-12-22T03:02:24.624Z,0.00
2018-12-22T03:03:24.595Z,0.00
2018-12-22T03:04:24.571Z,0.00
2018-12-22T03:05:24.640Z,0.00
2018-12-22T03:06:24.518Z,0.00
2018-12-22T03:07:24.564Z,0.00
2018-12-22T03:08:24.538Z,0.00
2018-12-22T03:09:24.671Z,0.00
2018-12-22T03:10:24.673Z,0.00
2018-12-22T03:11:24.717Z,0.00
2018-12-22T03:12:24.350Z,0.00
2018-12-22T03:13:24.406Z,0.00
2018-12-22T03:14:24.284Z,0.00
2018-12-22T03:15:24.300Z,0.00
2018-12-22T03:16:24.235Z,0.00
2018-12-22T03:17:24.308Z,0.00
2018-12-22T03:18:24.166Z,0.00
2018-12-22T03:19:24.221Z,0.00
2018-12-22T03:20:24.113Z,0.00
2018-12-22T03:21:24.080Z,0.00
2018-12-22T03:22:24.050Z,0.00
2018-12-22T03:23:24.037Z,0.00
2018-12-22T03:24:23.995Z,0.00
2018-12-22T03:25:24.058Z,0.00
2018-12-22T03:26:23.940Z,0.00
2018-12-22T03:27:23.967Z,0.00
2018-12-22T03:28:23.889Z,0.00
2018-12-22T03:29:23.875Z,0.00
2018-12-22T03:30:23.839Z,0.00
2018-12-22T03:31:23.894Z,0.00
2018-12-22T03:32:23.771Z,0.00
2018-12-22T03:33:23.799Z,0.00
2018-12-22T03:34:23.716Z,0.00
2018-12-22T03:35:23.709Z,0.00
2018-12-22T03:36:23.649Z,0.00
2018-12-22T03:37:23.723Z,0.00
2018-12-22T03:38:23.599Z,0.00
2018-12-22T03:39:23.635Z,0.00
2018-12-22T03:40:23.551Z,0.00
2018-12-22T03:41:23.544Z,0.00
2018-12-22T03:42:23.486Z,0.00
2018-12-22T03:43:23.557Z,0.00
2018-12-22T03:44:23.427Z,0.00
2018-12-22T03:45:23.468Z,0.00
2018-12-22T03:46:23.369Z,0.00
2018-12-22T03:47:23.397Z,0.00
2018-12-22T03:48:23.325Z,0.00
2018-12-22T03:49:23.396Z,0.00
2018-12-22T03:50:23.262Z,0.00
2018-12-22T03:51:23.307Z,0.00
2018-12-22T03:52:23.202Z,0.00
2018-12-22T03:53:23.211Z,0.00
2018-12-22T03:54:23.146Z,0.00
2018-12-22T03:55:23.229Z,0.00
2018-12-22T03:56:23.079Z,0.00
2018-12-22T03:57:23.139Z,0.00
2018-12-22T03:58:23.028Z,0.00
2018-12-22T03:59:24.921Z,0.00
2018-12-22T04:00:23.102Z,0.00
2018-12-22T04:01:23.983Z,0.00
2018-12-22T04:02:22.957Z,0.00
2018-12-22T04:03:23.079Z,0.00
2018-12-22T04:04:23.078Z,0.00
2018-12-22T04:05:23.231Z,0.00
2018-12-22T04:06:23.103Z,0.00
2018-12-22T04:07:23.230Z,0.00
2018-12-22T04:08:22.766Z,0.00
2018-12-22T04:09:22.825Z,0.00
2018-12-22T04:10:22.702Z,0.00
2018-12-22T04:11:22.735Z,0.00
2018-12-22T04:12:22.674Z,0.00
2018-12-22T04:13:22.724Z,0.00
2018-12-22T04:14:22.630Z,0.00
2018-12-22T04:15:22.639Z,0.00
2018-12-22T04:16:22.556Z,0.00
2018-12-22T04:17:22.547Z,0.00
2018-12-22T04:18:22.517Z,0.00
2018-12-22T04:19:23.736Z,0.00
2018-12-22T04:20:23.939Z,0.00
2018-12-22T04:21:23.832Z,0.00
2018-12-22T04:22:24.001Z,0.00
2018-12-22T04:23:23.419Z,0.00
2018-12-22T04:24:23.223Z,0.00
2018-12-22T04:25:23.102Z,0.00
2018-12-22T04:26:22.805Z,0.00
2018-12-22T04:29:05.438Z,0.00
2018-12-22T04:29:57.819Z,0.00
2018-12-22T04:51:03.354Z,0.00
2018-12-22T04:53:17.859Z,0.00
2018-12-22T04:54:17.889Z,0.00
2018-12-22T04:56:11.418Z,0.00
2018-12-22T04:57:11.279Z,0.00
2018-12-22T04:58:11.239Z,0.00
2018-12-22T04:59:11.194Z,0.00
2018-12-22T05:00:11.283Z,0.00
2018-12-22T05:01:11.141Z,0.00
2018-12-22T05:02:12.218Z,0.00
2018-12-22T05:03:11.079Z,0.00
2018-12-22T05:04:11.129Z,0.00
2018-12-22T05:05:11.026Z,0.00
2018-12-22T05:06:11.101Z,0.00
2018-12-22T05:07:10.968Z,0.00
2018-12-22T05:08:11.579Z,0.00
2018-12-22T05:48:28.938Z,0.00
2018-12-22T05:49:28.884Z,0.00
2018-12-22T05:50:29.994Z,0.00
2018-12-22T05:51:28.830Z,0.00
2018-12-22T06:30:38.048Z,0.00
2018-12-22T06:31:38.407Z,0.00
2018-12-22T06:32:38.710Z,0.00
2018-12-22T06:33:36.287Z,0.00
2018-12-22T06:34:51.116Z,0.00
2018-12-22T06:35:36.296Z,0.00
2018-12-22T06:36:44.065Z,0.00
2018-12-22T06:37:36.147Z,0.00
2018-12-22T06:38:43.076Z,0.00
2018-12-22T06:39:36.192Z,0.00
2018-12-22T06:40:43.085Z,0.00
2018-12-22T06:41:36.081Z,0.00
2018-12-22T06:42:57.065Z,0.00
2018-12-22T06:43:35.942Z,0.00
2018-12-22T06:44:37.023Z,0.00
2018-12-22T06:45:35.884Z,0.00
2018-12-22T06:46:51.643Z,0.00
2018-12-22T06:47:35.851Z,0.00
2018-12-22T06:49:12.618Z,0.00
2018-12-22T06:49:35.809Z,0.00
2018-12-22T06:50:35.748Z,0.00
2018-12-22T06:51:43.621Z,0.00
2018-12-22T06:52:35.703Z,0.00
2018-12-22T06:53:36.769Z,0.00
2018-12-22T06:54:35.636Z,0.00
2018-12-22T06:55:58.732Z,0.00
2018-12-22T06:56:35.622Z,0.00
2018-12-22T06:57:50.752Z,0.00
2018-12-22T06:58:35.535Z,0.00
2018-12-22T06:59:44.108Z,0.00
2018-12-22T07:00:35.509Z,0.00
2018-12-22T07:02:12.052Z,0.00
2018-12-22T07:02:35.402Z,0.00
2018-12-22T07:04:05.168Z,0.00
2018-12-22T07:04:35.351Z,0.00
2018-12-22T07:05:35.313Z,0.00
2018-12-22T07:06:35.403Z,0.00
2018-12-22T07:07:35.255Z,0.00
2018-12-22T07:08:37.371Z,0.00
2018-12-22T07:09:35.184Z,0.00
2018-12-22T07:10:36.247Z,0.00
2018-12-22T07:11:35.126Z,0.00
2018-12-22T07:12:36.145Z,0.00
2018-12-22T07:13:35.109Z,0.00
2018-12-22T07:14:44.134Z,0.00
2018-12-22T07:15:35.017Z,0.00
2018-12-22T07:16:41.627Z,0.00
2018-12-22T07:17:34.960Z,0.00
2018-12-22T07:18:36.975Z,0.00
2018-12-22T07:19:34.925Z,0.00
2018-12-22T07:20:34.870Z,0.00
2018-12-22T07:21:34.856Z,0.00
2018-12-22T07:22:36.875Z,0.00
2018-12-22T07:23:34.768Z,0.00
2018-12-22T07:24:34.830Z,0.00
2018-12-22T07:25:34.726Z,0.00
2018-12-22T07:26:51.629Z,0.00
2018-12-22T07:27:34.674Z,0.00
2018-12-22T07:28:41.628Z,0.00
2018-12-22T07:29:34.600Z,0.00
2018-12-22T07:30:36.712Z,0.00
2018-12-22T07:31:34.561Z,0.00
2018-12-22T07:32:34.644Z,0.00
2018-12-22T07:33:34.499Z,0.00
2018-12-22T07:34:55.526Z,0.00
2018-12-22T07:35:34.460Z,0.00
2018-12-22T07:36:34.445Z,0.00
2018-12-22T07:37:34.389Z,0.00
2018-12-22T07:38:34.347Z,0.00
2018-12-22T07:39:34.328Z,0.00
2018-12-22T07:40:34.284Z,0.00
2018-12-22T07:41:34.262Z,0.00
2018-12-22T07:42:34.240Z,0.00
2018-12-22T07:43:34.247Z,0.00
2018-12-22T07:44:34.169Z,0.00
2018-12-22T07:45:34.139Z,0.00
2018-12-22T07:46:34.140Z,0.00
2018-12-22T07:47:34.094Z,0.00
2018-12-22T07:48:34.102Z,0.00
2018-12-22T07:49:34.029Z,0.00
2018-12-22T07:50:34.127Z,5.63
2018-12-22T07:51:33.997Z,0.00
2018-12-22T07:52:34.037Z,0.00
2018-12-22T07:53:33.934Z,0.00
2018-12-22T07:54:34.059Z,0.00
2018-12-22T07:55:33.859Z,0.00
2018-12-22T07:56:34.978Z,0.00
2018-12-22T07:57:33.804Z,0.00
2018-12-22T07:58:33.865Z,0.00
2018-12-22T07:59:33.741Z,0.00
2018-12-22T08:00:35.086Z,5.63
2018-12-22T08:01:33.734Z,5.63
2018-12-22T08:02:33.788Z,0.00
2018-12-22T08:03:33.644Z,5.63
2018-12-22T08:04:33.716Z,5.63
2018-12-22T08:05:38.569Z,5.63
2018-12-22T08:06:33.618Z,5.63
2018-12-22T08:07:33.522Z,5.63
2018-12-22T08:08:33.586Z,5.63
2018-12-22T08:09:33.451Z,5.63
2018-12-22T08:10:33.517Z,5.63
2018-12-22T08:11:33.444Z,5.63
2018-12-22T08:12:41.099Z,5.63
2018-12-22T08:13:33.337Z,5.63
2018-12-22T08:14:33.315Z,5.63
2018-12-22T08:15:33.287Z,5.63
2018-12-22T08:16:33.253Z,5.63
2018-12-22T08:17:33.346Z,5.63
2018-12-22T08:18:33.191Z,5.63
2018-12-22T08:19:33.155Z,5.63
2018-12-22T08:20:34.197Z,11.25
2018-12-22T08:21:33.114Z,5.63
2018-12-22T08:23:06.141Z,5.63
2018-12-22T08:24:08.222Z,5.63
2018-12-22T08:25:06.055Z,11.25
2018-12-22T08:26:06.017Z,11.25
2018-12-22T08:27:06.073Z,11.25
2018-12-22T08:28:05.956Z,5.63
2018-12-22T08:29:08.073Z,5.63
2018-12-22T08:30:05.930Z,11.25
2018-12-22T08:31:06.064Z,11.25
2018-12-22T08:32:05.890Z,11.25
2018-12-22T08:33:26.839Z,16.88
2018-12-22T08:34:05.872Z,16.88
2018-12-22T08:35:14.681Z,16.88
2018-12-22T08:36:05.779Z,11.25
2018-12-22T08:37:05.856Z,16.88
2018-12-22T08:38:05.756Z,11.25
2018-12-22T08:39:14.661Z,11.25
2018-12-22T08:40:05.667Z,11.25
2018-12-22T08:41:05.671Z,11.25
2018-12-22T08:42:05.598Z,11.25
2018-12-22T08:43:12.748Z,16.88
2018-12-22T08:44:05.545Z,16.88
2018-12-22T08:45:06.658Z,22.50
2018-12-22T08:46:05.647Z,22.50
2018-12-22T08:47:07.581Z,22.50
2018-12-22T08:48:05.413Z,22.50
2018-12-22T08:49:07.473Z,22.50
2018-12-22T08:50:09.317Z,22.50
2018-12-22T08:51:29.176Z,16.88
2018-12-22T08:52:05.328Z,11.25
2018-12-22T08:53:06.368Z,11.25
2018-12-22T08:54:05.287Z,16.88
2018-12-22T08:55:05.543Z,16.88
2018-12-22T08:56:05.189Z,16.88
2018-12-22T08:57:06.252Z,22.50
2018-12-22T08:58:05.252Z,16.88
2018-12-22T08:59:06.149Z,22.50
2018-12-22T09:00:05.083Z,22.50
2018-12-22T09:02:40.120Z,22.50
2018-12-22T09:03:40.185Z,22.50
2018-12-22T09:04:40.092Z,16.88
2018-12-22T09:05:40.122Z,16.88
2018-12-22T09:06:40.000Z,22.50
2018-12-22T09:07:47.764Z,16.88
2018-12-22T09:08:39.941Z,16.88
2018-12-22T09:09:41.965Z,16.88
2018-12-22T09:10:39.892Z,11.25
2018-12-22T09:11:39.943Z,11.25
2018-12-22T09:12:39.877Z,16.88
2018-12-22T09:13:56.873Z,16.88
2018-12-22T09:14:39.801Z,16.88
2018-12-22T09:17:48.437Z,16.88
2018-12-22T09:18:48.389Z,16.88
2018-12-22T09:19:57.144Z,22.50
2018-12-22T09:20:48.371Z,28.13
2018-12-22T09:22:48.428Z,16.88
2018-12-22T09:24:10.303Z,11.25
2018-12-22T09:24:48.234Z,11.25
2018-12-22T09:25:48.207Z,11.25
2018-12-22T09:26:48.256Z,11.25
2018-12-22T09:27:48.164Z,16.88
2018-12-22T09:28:49.308Z,16.88
2018-12-22T09:29:48.067Z,22.50
2018-12-22T09:30:50.102Z,22.50
2018-12-22T09:31:48.081Z,22.50
2018-12-22T09:32:55.073Z,33.75
2018-12-22T09:33:48.009Z,28.13
2018-12-22T09:34:49.993Z,22.50
2018-12-22T09:35:47.995Z,16.88
2018-12-22T09:37:12.419Z,33.75
2018-12-22T09:37:48.064Z,39.38
2018-12-22T09:38:47.829Z,45.00
2018-12-22T09:39:49.881Z,50.63
2018-12-22T09:40:47.790Z,50.63
2018-12-22T09:41:48.793Z,56.25
2018-12-22T09:42:56.469Z,33.75
2018-12-22T09:43:47.707Z,28.13
2018-12-22T09:44:47.748Z,33.75
2018-12-22T09:45:47.639Z,28.13
2018-12-22T09:46:48.672Z,33.75
2018-12-22T09:47:47.619Z,39.38
2018-12-22T09:48:48.593Z,45.00
2018-12-22T09:49:47.539Z,67.50
2018-12-22T09:51:03.446Z,56.25
2018-12-22T09:51:47.504Z,39.38
2018-12-22T09:52:56.419Z,28.13
2018-12-22T09:53:47.413Z,33.75
2018-12-22T10:01:48.013Z,39.38
2018-12-22T10:02:40.126Z,39.38
2018-12-22T10:03:18.322Z,50.63
2018-12-22T10:04:19.987Z,45.00
2018-12-22T10:05:18.019Z,33.75
2018-12-22T10:06:46.894Z,28.13
2018-12-22T10:07:17.972Z,33.75
2018-12-22T10:08:32.570Z,33.75
2018-12-22T10:09:17.912Z,50.63
2018-12-22T10:10:17.823Z,45.00
2018-12-22T10:11:17.799Z,45.00
2018-12-22T10:12:18.771Z,39.38
2018-12-22T10:13:17.817Z,33.75
2018-12-22T10:14:33.500Z,39.38
2018-12-22T10:15:17.693Z,33.75
2018-12-22T10:16:18.657Z,33.75
2018-12-22T10:17:17.638Z,28.13
2018-12-22T10:18:39.595Z,28.13
2018-12-22T10:19:17.611Z,39.38
2018-12-22T10:20:24.430Z,56.25
2018-12-22T10:21:17.553Z,67.50
2018-12-22T10:22:17.482Z,73.13
2018-12-22T10:23:17.458Z,56.25
2018-12-22T10:24:17.438Z,56.25
2018-12-22T10:25:17.424Z,61.88
2018-12-22T10:26:18.530Z,61.88
2018-12-22T10:27:17.476Z,61.88
2018-12-22T10:28:17.322Z,50.63
2018-12-22T10:29:17.331Z,50.63
2018-12-22T10:49:37.285Z,28.13
2018-12-22T10:50:21.227Z,28.13
2018-12-22T10:51:42.239Z,33.75
2018-12-22T10:52:21.177Z,39.38
2018-12-22T10:53:21.137Z,39.38
2018-12-22T10:54:21.105Z,33.75
2018-12-22T10:55:21.108Z,28.13
2018-12-22T10:56:45.102Z,28.13
2018-12-22T10:57:21.027Z,28.13
2018-12-22T10:58:49.737Z,16.88
2018-12-22T10:59:20.966Z,33.75
2018-12-22T11:00:21.944Z,39.38
2018-12-22T11:01:26.473Z,45.00
2018-12-22T11:02:29.737Z,33.75
2018-12-22T11:03:21.031Z,33.75
2018-12-22T11:04:21.863Z,28.13
2018-12-22T11:05:20.850Z,33.75
2018-12-22T11:06:56.760Z,33.75
2018-12-22T11:07:20.775Z,28.13
2018-12-22T11:08:20.734Z,33.75
2018-12-22T11:09:37.283Z,39.38
2018-12-22T11:10:20.679Z,39.38
2018-12-22T11:11:35.244Z,45.00
2018-12-22T11:12:20.617Z,45.00
2018-12-22T11:13:21.622Z,56.25
2018-12-22T11:14:20.561Z,67.50
2018-12-22T11:16:20.564Z,67.50
2018-12-22T11:17:20.453Z,61.88
2018-12-22T11:18:20.498Z,61.88
2018-12-22T11:19:22.455Z,67.50
2018-12-22T11:20:20.431Z,73.13
2018-12-22T11:21:20.411Z,67.50
2018-12-22T11:22:20.356Z,61.88
2018-12-22T11:23:36.491Z,73.13
2018-12-22T11:24:20.273Z,84.38
2018-12-22T11:25:29.258Z,90.00
2018-12-22T11:26:20.210Z,84.38
2018-12-22T11:27:37.025Z,84.38
2018-12-22T11:28:20.142Z,95.63
2018-12-22T11:29:34.818Z,95.63
2018-12-22T11:30:20.101Z,95.63
2018-12-22T11:31:49.775Z,95.63
2018-12-22T11:32:20.044Z,95.63
2018-12-22T11:33:27.739Z,90.00
2018-12-22T11:34:20.010Z,84.38
2018-12-22T11:35:28.785Z,90.00
2018-12-22T11:36:19.937Z,90.00
2018-12-22T11:37:20.883Z,90.00
2018-12-22T11:38:19.896Z,78.75
2018-12-22T11:39:20.842Z,67.50
2018-12-22T11:40:19.829Z,67.50
2018-12-22T11:41:20.840Z,50.63
2018-12-22T11:42:19.796Z,45.00
2018-12-22T11:43:19.739Z,45.00
2018-12-22T11:44:19.709Z,45.00
2018-12-22T11:45:26.260Z,28.13
2018-12-22T11:46:19.682Z,28.13
2018-12-22T11:47:26.272Z,45.00
2018-12-22T11:48:19.595Z,45.00
2018-12-22T11:49:19.550Z,33.75
2018-12-22T11:50:19.588Z,45.00
2018-12-22T11:51:21.586Z,45.00
2018-12-22T11:52:19.467Z,61.88
2018-12-22T11:53:43.219Z,50.63
2018-12-22T11:54:19.404Z,56.25
2018-12-22T11:55:19.381Z,67.50
2018-12-22T11:56:19.378Z,78.75
2018-12-22T11:59:38.190Z,78.75
2018-12-22T12:00:38.164Z,84.38
2018-12-22T12:01:46.022Z,95.63
2018-12-22T12:02:38.108Z,101.25
2018-12-22T12:03:44.936Z,95.63
2018-12-22T12:04:38.100Z,95.63
2018-12-22T12:05:44.945Z,106.88
2018-12-22T12:06:37.994Z,95.63
2018-12-22T12:07:37.937Z,101.25
2018-12-22T12:08:37.901Z,90.00
2018-12-22T12:09:44.468Z,84.38
2018-12-22T12:10:37.883Z,84.38
2018-12-22T12:12:37.783Z,45.00
2018-12-22T12:13:46.487Z,67.50
2018-12-22T12:14:37.826Z,84.38
2018-12-22T12:15:45.475Z,84.38
2018-12-22T12:16:37.651Z,101.25
2018-12-22T12:17:58.641Z,118.13
2018-12-22T12:18:37.610Z,123.75
2018-12-22T12:19:39.666Z,112.50
2018-12-22T12:20:37.551Z,95.63
2018-12-22T12:21:37.545Z,90.00
2018-12-22T12:22:37.480Z,90.00
2018-12-22T12:23:38.529Z,90.00
2018-12-22T12:24:37.479Z,73.13
2018-12-22T12:25:38.509Z,67.50
2018-12-22T12:26:37.460Z,61.88
2018-12-22T12:27:43.988Z,56.25
2018-12-22T12:28:37.378Z,50.63
2018-12-22T12:29:38.302Z,61.88
2018-12-22T12:30:37.260Z,61.88
2018-12-22T12:31:37.248Z,67.50
2018-12-22T12:32:37.240Z,73.13
2018-12-22T12:33:38.227Z,67.50
2018-12-22T12:34:37.160Z,95.63
2018-12-22T12:35:58.126Z,101.25
2018-12-22T12:36:37.183Z,90.00
2018-12-22T12:37:53.022Z,84.38
2018-12-22T12:38:37.052Z,90.00
2018-12-22T12:39:46.004Z,78.75
2018-12-22T12:40:37.017Z,73.13
2018-12-22T12:41:39.042Z,67.50
2018-12-22T12:42:36.920Z,73.13
2018-12-22T12:43:36.942Z,78.75
2018-12-22T12:44:36.925Z,67.50
2018-12-22T12:45:36.870Z,56.25
2018-12-22T12:46:36.810Z,56.25
2018-12-22T12:48:36.749Z,56.25
2018-12-22T12:49:44.500Z,73.13
2018-12-22T12:50:36.722Z,78.75
2018-12-22T12:51:36.666Z,61.88
2018-12-22T12:52:36.676Z,61.88
2018-12-22T12:53:57.646Z,61.88
2018-12-22T12:54:36.618Z,67.50
2018-12-22T12:55:36.534Z,84.38
2018-12-22T13:06:11.845Z,67.50
2018-12-22T13:07:02.002Z,73.13
2018-12-22T13:08:01.957Z,90.00
2018-12-22T13:09:03.041Z,95.63
2018-12-22T13:10:01.930Z,84.38
2018-12-22T13:11:02.889Z,67.50
2018-12-22T13:12:01.842Z,73.13
2018-12-22T13:13:01.817Z,50.63
2018-12-22T13:14:03.791Z,50.63
2018-12-22T13:15:01.752Z,45.00
2018-12-22T13:17:56.419Z,33.75
2018-12-22T13:18:33.884Z,39.38
2018-12-22T13:19:42.392Z,33.75
2018-12-22T13:20:33.775Z,33.75
2018-12-22T13:21:35.747Z,28.13
2018-12-22T13:22:33.732Z,28.13
2018-12-22T13:24:33.668Z,28.13
2018-12-22T13:25:33.646Z,28.13
2018-12-22T13:26:36.963Z,33.75
2018-12-22T13:27:33.812Z,33.75
2018-12-22T13:28:35.573Z,22.50
2018-12-22T13:29:33.507Z,22.50
2018-12-22T13:30:34.491Z,16.88
2018-12-22T13:31:33.450Z,16.88
2018-12-22T13:32:33.422Z,16.88
2018-12-22T13:33:33.446Z,16.88
2018-12-22T13:34:33.372Z,16.88
2018-12-22T13:35:33.345Z,16.88
2018-12-22T13:36:34.761Z,16.88
2018-12-22T13:37:33.279Z,16.88
2018-12-22T13:38:33.365Z,11.25
2018-12-22T13:39:33.243Z,16.88
2018-12-22T13:40:33.202Z,22.50
2018-12-22T13:41:33.247Z,16.88
2018-12-22T13:42:33.259Z,16.88
2018-12-22T13:43:33.346Z,16.88
2018-12-22T13:44:33.498Z,22.50
2018-12-22T13:45:33.402Z,22.50
2018-12-22T13:46:34.023Z,33.75
2018-12-22T13:47:33.043Z,39.38
2018-12-22T13:48:33.307Z,50.63
2018-12-22T13:49:33.425Z,61.88
2018-12-22T13:50:32.952Z,50.63
2018-12-22T13:51:32.883Z,50.63
2018-12-22T13:52:32.872Z,50.63
2018-12-22T13:53:32.833Z,45.00
2018-12-22T13:54:34.037Z,39.38
2018-12-22T13:55:32.885Z,39.38
2018-12-22T13:56:32.787Z,39.38
2018-12-22T13:57:32.703Z,33.75
2018-12-22T13:58:32.682Z,33.75
2018-12-22T13:59:32.643Z,33.75
2018-12-22T14:00:32.626Z,33.75
2018-12-22T14:01:32.593Z,28.13
2018-12-22T14:02:33.561Z,22.50
2018-12-22T14:03:32.543Z,28.13
2018-12-22T14:04:32.531Z,28.13
2018-12-22T14:05:32.479Z,28.13
2018-12-22T14:06:32.456Z,28.13
2018-12-22T14:07:32.436Z,22.50
2018-12-22T14:08:34.383Z,22.50
2018-12-22T14:09:32.366Z,22.50
2018-12-22T14:10:32.328Z,22.50
2018-12-22T14:11:32.284Z,22.50
2018-12-22T14:12:32.273Z,22.50
2018-12-22T14:13:32.241Z,16.88
2018-12-22T14:14:32.213Z,16.88
2018-12-22T14:15:32.195Z,22.50
2018-12-22T14:16:33.154Z,22.50
2018-12-22T14:17:32.135Z,22.50
2018-12-22T14:18:32.183Z,22.50
2018-12-22T14:19:32.086Z,22.50
2018-12-22T14:20:32.055Z,22.50
2018-12-22T14:21:32.014Z,22.50
2018-12-22T14:22:38.903Z,22.50
2018-12-22T14:23:32.167Z,22.50
2018-12-22T14:24:32.221Z,22.50
2018-12-22T14:25:32.208Z,22.50
2018-12-22T14:26:32.868Z,22.50
2018-12-22T14:27:31.841Z,16.88
2018-12-22T14:28:31.965Z,22.50
2018-12-22T14:29:31.768Z,22.50
2018-12-22T14:30:31.749Z,22.50
2018-12-22T14:31:31.706Z,16.88
2018-12-22T14:32:31.742Z,16.88
2018-12-22T14:33:31.661Z,16.88
2018-12-22T14:34:40.408Z,16.88
2018-12-22T14:35:31.604Z,16.88
2018-12-22T14:36:33.587Z,16.88
2018-12-22T14:37:31.539Z,16.88
2018-12-22T14:38:31.519Z,16.88
2018-12-22T14:39:31.485Z,16.88
2018-12-22T14:40:40.433Z,11.25
2018-12-22T14:41:31.432Z,5.63
2018-12-22T14:42:31.398Z,5.63
2018-12-22T14:43:31.366Z,5.63
2018-12-22T14:45:06.889Z,5.63
2018-12-22T14:45:31.315Z,5.63
2018-12-22T14:46:31.318Z,5.63
2018-12-22T14:51:06.061Z,5.63
2018-12-22T14:51:51.819Z,0.00
2018-12-22T14:53:59.959Z,0.00
2018-12-22T14:54:57.904Z,0.00
2018-12-22T14:55:57.916Z,0.00
2018-12-22T14:56:57.849Z,0.00
2018-12-22T14:57:57.817Z,0.00
2018-12-22T14:58:57.788Z,0.00
2018-12-22T14:59:57.769Z,0.00
2018-12-22T15:00:57.805Z,0.00
2018-12-22T15:01:58.704Z,0.00
2018-12-22T15:02:57.674Z,0.00
2018-12-22T15:04:04.233Z,0.00
2018-12-22T15:04:57.620Z,5.63
2018-12-22T15:05:57.589Z,5.63
2018-12-22T15:06:57.560Z,5.63
2018-12-22T15:07:57.541Z,11.25
2018-12-22T15:08:57.590Z,5.63
2018-12-22T15:10:14.247Z,5.63
2018-12-22T15:10:57.447Z,5.63
2018-12-22T15:11:57.413Z,5.63
2018-12-22T15:12:57.381Z,5.63
2018-12-22T15:14:13.282Z,5.63
2018-12-22T15:14:57.337Z,5.63
2018-12-22T15:15:57.295Z,5.63
2018-12-22T15:16:57.260Z,0.00
2018-12-22T15:18:57.217Z,0.00
2018-12-22T15:21:29.425Z,0.00
2018-12-22T15:22:46.324Z,0.00
2018-12-22T15:23:29.356Z,0.00
2018-12-22T15:33:07.954Z,0.00
2018-12-22T15:34:06.858Z,0.00
2018-12-22T15:35:44.374Z,0.00
2018-12-22T15:36:06.504Z,0.00
2018-12-22T15:37:06.464Z,0.00
2018-12-22T15:38:27.496Z,0.00
2018-12-22T15:39:06.412Z,0.00
2018-12-22T15:40:06.446Z,0.00
2018-12-22T15:41:07.436Z,0.00
2018-12-22T15:42:06.347Z,0.00
2018-12-22T15:43:12.879Z,0.00
2018-12-22T15:44:06.274Z,0.00
2018-12-22T15:45:07.370Z,0.00
2018-12-22T15:46:06.202Z,0.00
2018-12-22T15:47:06.261Z,0.00
2018-12-22T15:48:06.160Z,0.00
2018-12-22T15:49:06.171Z,0.00
2018-12-22T16:02:36.825Z,0.00
2018-12-22T16:03:36.774Z,0.00
2018-12-22T16:05:36.217Z,0.00